Airfield :
LOGIN :

Register | Disclaimer

   EN    FR    IT 

 










Legend :    VFR   Marginal VFR   IFR   Intensive IFR   Very Intensive IFR
Visi :
Ceiling :
>= 8 km
>= 3000ft
5 to 8 km
1000 to 3000 ft
1500m to 5 km
500 to 1000 ft
800 to 1500m
200 to 500 ft
< 800m
< 200 ft
Symbols :   Thunderstorms  Fog  Heavy snow  Heavy precipitations  Wind > 20 kt
SIGMETs :     Misc.  Thunderstorms  Icing  Turbulence  Mountain Waves  Volcanic Ashes






- Airport Elevation : 580 ft


LFOA - Avord

CURRENT METAR :
  • 211630Z AUTO 24015KT 9999 FEW041 BKN078 15/08 Q1015 TEMPO 27015G25KT 3000 SHRA BKN025TCU OVC040

EXPIRED METARs :
  • 211600Z AUTO 24011KT CAVOK 16/09 Q1014 TEMPO 27015G25KT 3000 SHRA BKN025TCU OVC040
  • 211530Z AUTO 24015KT 9999 FEW043 BKN062 OVC078 16/09 Q1014 TEMPO 27015G25KT 3000 SHRA BKN025TCU OVC040
  • 211500Z AUTO 24019KT 9999 BKN043 OVC062 16/08 Q1015 TEMPO 27015G25KT 3000 SHRA BKN025TCU OVC040
  • 211430Z AUTO 25016KT 9999 BKN044 BKN056 17/09 Q1015 TEMPO 27015G25KT 3000 SHRA BKN025TCU OVC040
  • 211400Z AUTO 25017KT 9999 SCT042 BKN052 17/09 Q1014 TEMPO 24020G30KT 3000 SHRA BKN025CB

TAF TAF LFOA
Valid from the 21 at 15:00 until the 22 at 15:00 UTC


211400Z 2115/2215 25020KT 9999 SCT040 TX17/2115Z TN04/2206Z
TEMPO 2116/2120 27015G25KT 3000 SHRA BKN025TCU OVC040
BECMG 2120/2122 34007KT
PROB40
TEMPO 2202/2209 4000 BR
PROB30
TEMPO 2205/2209 0800 FG BKN004



MET'MAP, your aeronautical weather chart ! - Copyright ORBIFLY December 2007 - Disclaimer

ORBIFLY MET'MAP TEAM :

Programming & Development : Alexandra Zaïnal
Concept & original design : Baudouin d'Aumeries
Assistance for programming : Marc-Olivier Méhu
Technical & hardware support : Manuel Goepfert

Contact : metmap@orbifly.com




SOURCES & CREDITS :

   NOAA